< < Back
Terminal Aerodrome Forecast


Current Version              Previous Versions:   1  2  3  4  5  6  7  8  9  

Terminal Aerodrome Forecast

200
FTUS42 KFFC 170900 AAA
TAFFTY
TAF AMD
KFTY 170934Z 1710/1806 35005KT P6SM FEW040
     FM171600 32008KT P6SM SCT045
     FM180100 33003KT P6SM SKC=



Latest METAR

716
SAUS70 KWBC 172100 RRD
MTRFTY
METAR KFTY 172053Z 31010KT 10SM CLR 28/14 A2990 RMK AO2 SLP117 T02830144
56013


USA.gov is the U.S. government's official web portal to all federal, state and local government web resources and services.